Time;durP1;ratioP1;P1;durP2;ratioP2;P2;SDS_P1;SDS_P2;PMS_P1;PMS_P2;Temp;Humidity;BMP_temperature;BMP_pressure;BME280_temperature;BME280_humidity;BME280_pressure;Samples;Min_cycle;Max_cycle;Signal;HPM_P1;HPM_P2
2023/08/06 00:00:27;;;;;;;7.77;5.30;;;;;;;20.90;100.00;95481.38;5071073;28;20040;-82
2023/08/06 00:02:53;;;;;;;8.02;6.03;;;;;;;20.55;100.00;95489.56;5064464;28;20055;-82
2023/08/06 00:05:20;;;;;;;8.30;5.85;;;;;;;20.83;100.00;95484.19;5056804;28;20063;-81
2023/08/06 00:07:50;;;;;;;8.67;5.83;;;;;;;20.94;100.00;95474.47;5058308;28;20029;-81
2023/08/06 00:10:17;;;;;;;7.90;5.57;;;;;;;20.41;100.00;95479.16;5070231;28;20602;-81
2023/08/06 00:12:43;;;;;;;7.70;5.70;;;;;;;20.37;100.00;95480.69;5063249;28;20021;-81
2023/08/06 00:15:12;;;;;;;10.30;6.90;;;;;;;20.69;100.00;95480.19;5048863;28;20021;-81
2023/08/06 00:17:38;;;;;;;8.03;5.43;;;;;;;20.59;100.00;95474.66;5065654;28;20031;-81
2023/08/06 00:20:05;;;;;;;8.27;5.83;;;;;;;20.34;100.00;95475.81;5045771;28;20025;-81
2023/08/06 00:22:38;;;;;;;8.30;5.43;;;;;;;20.15;100.00;95466.38;5052808;28;20024;-82
2023/08/06 00:25:07;;;;;;;7.67;5.17;;;;;;;19.97;100.00;95478.03;5071350;28;20406;-81
2023/08/06 00:27:32;;;;;;;9.60;5.43;;;;;;;19.78;100.00;95472.03;5047623;28;20116;-82
2023/08/06 00:29:58;;;;;;;7.97;5.67;;;;;;;20.13;100.00;95463.94;5069694;28;20079;-81
2023/08/06 00:32:24;;;;;;;7.30;5.97;;;;;;;19.84;100.00;95463.09;5054913;28;20216;-81
2023/08/06 00:34:49;;;;;;;9.43;6.30;;;;;;;20.15;100.00;95464.50;5048902;28;20016;-81
2023/08/06 00:37:19;;;;;;;8.67;6.07;;;;;;;20.35;100.00;95456.06;5054724;28;20407;-81
2023/08/06 00:39:45;;;;;;;9.30;6.33;;;;;;;20.47;100.00;95453.34;5052609;28;20038;-82
2023/08/06 00:42:11;;;;;;;7.73;6.07;;;;;;;20.77;100.00;95449.63;5063158;28;20474;-81
2023/08/06 00:44:38;;;;;;;9.23;6.47;;;;;;;20.84;100.00;95455.59;5063967;28;20470;-82
2023/08/06 00:47:05;;;;;;;7.67;5.87;;;;;;;20.58;100.00;95452.50;5063274;28;20420;-81
2023/08/06 00:49:30;;;;;;;8.43;5.43;;;;;;;20.68;100.00;95452.66;5071176;28;20021;-81
2023/08/06 00:51:58;;;;;;;7.77;5.60;;;;;;;20.81;100.00;95440.84;5069982;28;20073;-81
2023/08/06 00:54:24;;;;;;;7.70;6.20;;;;;;;21.11;100.00;95442.38;5067889;28;20028;-81
2023/08/06 00:56:50;;;;;;;8.37;5.70;;;;;;;20.92;100.00;95450.69;5065544;28;20031;-81
2023/08/06 00:59:23;;;;;;;7.20;5.57;;;;;;;20.91;100.00;95446.38;5070883;28;20024;-81
2023/08/06 01:01:50;;;;;;;7.80;5.32;;;;;;;20.63;100.00;95444.59;5048918;28;20111;-81
2023/08/06 01:04:16;;;;;;;7.63;4.90;;;;;;;20.74;100.00;95439.41;5066029;28;20054;-81
2023/08/06 01:07:13;;;;;;;7.93;4.45;;;;;;;20.92;100.00;95437.31;5066760;28;20024;-83
2023/08/06 01:09:53;;;;;;;6.32;4.60;;;;;;;21.13;100.00;95430.41;5058214;28;20037;-82
2023/08/06 01:12:30;;;;;;;6.30;4.32;;;;;;;21.34;100.00;95439.56;5050848;28;20024;-82
2023/08/06 01:15:14;;;;;;;7.95;4.97;;;;;;;21.05;100.00;95438.00;5048721;28;20032;-81
2023/08/06 01:17:40;;;;;;;7.30;4.60;;;;;;;21.32;100.00;95430.91;5069464;28;20060;-81
2023/08/06 01:20:35;;;;;;;6.55;4.45;;;;;;;20.99;100.00;95437.13;5057469;28;20070;-82
2023/08/06 01:23:00;;;;;;;7.03;5.13;;;;;;;21.30;100.00;95427.69;5063942;28;20075;-81
2023/08/06 01:25:33;;;;;;;9.83;5.70;;;;;;;21.07;100.00;95434.06;5076990;28;20025;-82
2023/08/06 01:28:09;;;;;;;47.25;8.05;;;;;;;21.00;100.00;95430.75;5068972;28;20505;-81
2023/08/06 01:30:40;;;;;;;94.40;9.77;;;;;;;20.94;100.00;95427.16;5072052;28;20029;-82
2023/08/06 01:33:09;;;;;;;63.87;8.97;;;;;;;20.96;100.00;95421.59;5067471;28;20025;-82
2023/08/06 01:35:36;;;;;;;9.35;6.65;;;;;;;21.03;100.00;95416.88;5073686;28;20028;-82
2023/08/06 01:38:03;;;;;;;16.03;7.27;;;;;;;21.08;100.00;95418.81;5061026;28;20028;-82
2023/08/06 01:40:30;;;;;;;10.27;7.13;;;;;;;21.06;100.00;95418.25;5056955;28;20450;-83
2023/08/06 01:42:56;;;;;;;9.82;6.47;;;;;;;21.04;100.00;95412.34;5070247;28;20613;-82
2023/08/06 01:45:22;;;;;;;8.90;6.40;;;;;;;21.01;100.00;95410.16;5070314;28;20090;-82
2023/08/06 01:47:49;;;;;;;6.63;5.53;;;;;;;20.89;100.00;95416.41;5060552;28;20082;-82
2023/08/06 01:50:14;;;;;;;7.57;5.78;;;;;;;20.66;100.00;95411.25;5068574;28;20036;-82
2023/08/06 01:52:40;;;;;;;5.93;4.57;;;;;;;20.98;100.00;95414.13;5071687;28;20020;-82
2023/08/06 01:55:06;;;;;;;7.87;4.97;;;;;;;21.00;100.00;95417.38;5056187;28;20036;-81
2023/08/06 01:57:31;;;;;;;9.60;5.73;;;;;;;20.72;100.00;95404.91;5049017;28;20017;-82
2023/08/06 01:59:57;;;;;;;9.63;5.00;;;;;;;20.85;100.00;95404.56;5072879;28;20043;-81
2023/08/06 02:02:24;;;;;;;7.00;5.15;;;;;;;20.57;100.00;95400.13;5070692;28;20020;-82
2023/08/06 02:04:51;;;;;;;7.53;4.97;;;;;;;20.20;100.00;95397.06;5054954;28;20025;-82
2023/08/06 02:07:17;;;;;;;9.38;5.03;;;;;;;20.46;100.00;95393.78;5058236;28;20698;-82
2023/08/06 02:09:44;;;;;;;9.00;5.75;;;;;;;20.41;100.00;95385.66;5059963;28;20017;-81
2023/08/06 02:12:10;;;;;;;7.72;4.78;;;;;;;20.21;100.00;95383.47;5076324;28;20052;-81
2023/08/06 02:14:35;;;;;;;8.53;4.80;;;;;;;20.37;100.00;95384.53;5053893;28;20482;-81
2023/08/06 02:17:01;;;;;;;8.32;5.25;;;;;;;20.38;100.00;95377.34;5068967;28;20031;-81
2023/08/06 02:19:39;;;;;;;7.20;4.40;;;;;;;20.19;100.00;95374.09;5069227;28;20021;-81
2023/08/06 02:22:04;;;;;;;9.07;4.53;;;;;;;20.07;100.00;95366.13;5074019;28;20596;-81
2023/08/06 02:24:30;;;;;;;6.87;4.50;;;;;;;19.91;100.00;95367.72;5077460;28;20021;-82
2023/08/06 02:26:56;;;;;;;8.87;4.90;;;;;;;20.29;100.00;95362.75;5071520;28;20508;-82
2023/08/06 02:29:21;;;;;;;6.40;3.90;;;;;;;20.34;100.00;95366.34;5073796;28;20382;-81
2023/08/06 02:31:47;;;;;;;6.55;4.32;;;;;;;20.06;100.00;95369.06;5074064;28;20032;-82
2023/08/06 02:34:12;;;;;;;7.53;4.00;;;;;;;20.11;100.00;95371.81;5073717;28;20028;-82
2023/08/06 02:36:38;;;;;;;6.10;3.80;;;;;;;20.02;100.00;95366.88;5073750;28;20012;-81
2023/08/06 02:39:04;;;;;;;6.47;3.63;;;;;;;20.12;100.00;95363.56;5068282;28;20520;-82
2023/08/06 02:41:29;;;;;;;5.63;3.90;;;;;;;20.23;100.00;95364.56;5073802;28;20074;-82
2023/08/06 02:43:56;;;;;;;5.80;3.70;;;;;;;19.95;100.00;95362.69;5066202;28;20395;-81
2023/08/06 02:46:22;;;;;;;6.33;3.53;;;;;;;19.80;100.00;95357.91;5055943;28;20028;-81
2023/08/06 02:49:08;;;;;;;5.37;2.97;;;;;;;19.82;100.00;95369.16;5073163;28;20035;-81
2023/08/06 02:51:34;;;;;;;5.80;3.60;;;;;;;20.25;100.00;95357.94;5049939;28;20093;-82
2023/08/06 02:53:59;;;;;;;16.53;4.60;;;;;;;20.02;100.00;95358.84;5055177;28;20025;-82
2023/08/06 02:56:26;;;;;;;5.80;3.60;;;;;;;20.27;100.00;95352.34;5073267;28;20020;-81
2023/08/06 02:59:06;;;;;;;6.10;3.40;;;;;;;20.30;100.00;95346.50;5055929;28;20027;-82
2023/08/06 03:01:58;;;;;;;6.83;3.73;;;;;;;20.46;100.00;95350.25;5073940;28;20089;-81
2023/08/06 03:04:34;;;;;;;5.87;3.63;;;;;;;20.60;100.00;95337.41;5051405;28;20047;-81
2023/08/06 03:07:00;;;;;;;5.33;3.27;;;;;;;20.43;100.00;95342.72;5062696;28;20027;-81
2023/08/06 03:09:34;;;;;;;5.10;3.10;;;;;;;20.19;100.00;95339.41;5073329;28;20380;-81
2023/08/06 03:12:01;;;;;;;5.13;3.43;;;;;;;20.22;100.00;95345.06;5056288;28;20058;-81
2023/08/06 03:14:27;;;;;;;4.67;3.03;;;;;;;20.29;100.00;95336.06;5056249;28;20501;-81
2023/08/06 03:16:53;;;;;;;6.70;3.30;;;;;;;20.07;100.00;95335.97;5052463;28;20020;-81
2023/08/06 03:19:19;;;;;;;4.43;3.07;;;;;;;20.26;100.00;95340.03;5051890;28;20029;-82
2023/08/06 03:21:45;;;;;;;5.85;3.00;;;;;;;20.33;100.00;95338.03;5056134;28;20025;-81
2023/08/06 03:24:13;;;;;;;4.78;3.20;;;;;;;20.12;100.00;95336.03;5066657;28;20472;-81
2023/08/06 03:26:39;;;;;;;8.10;3.38;;;;;;;20.25;100.00;95336.56;5072793;28;20478;-81
2023/08/06 03:29:05;;;;;;;6.20;3.00;;;;;;;20.40;100.00;95332.53;5072260;28;20031;-81
2023/08/06 03:31:33;;;;;;;4.07;2.40;;;;;;;20.60;100.00;95322.19;5069795;28;20374;-81
2023/08/06 03:33:59;;;;;;;6.90;2.93;;;;;;;20.46;100.00;95321.69;5067218;28;20017;-81
2023/08/06 03:36:26;;;;;;;5.60;2.83;;;;;;;20.28;100.00;95319.22;5058460;28;20028;-81
2023/08/06 03:38:54;;;;;;;6.73;3.03;;;;;;;20.07;100.00;95322.63;5052830;28;20438;-81
2023/08/06 03:41:19;;;;;;;4.93;2.65;;;;;;;19.99;100.00;95321.97;5072062;28;20073;-82
2023/08/06 03:43:45;;;;;;;5.77;3.17;;;;;;;19.50;100.00;95326.91;5043349;28;20020;-81
2023/08/06 03:46:17;;;;;;;4.93;2.83;;;;;;;19.46;100.00;95323.09;5053759;28;20025;-82
2023/08/06 03:48:44;;;;;;;5.63;2.80;;;;;;;19.30;100.00;95321.97;5073882;28;20023;-81
2023/08/06 03:51:09;;;;;;;5.53;2.90;;;;;;;19.69;100.00;95324.09;5071108;28;20013;-81
2023/08/06 03:53:37;;;;;;;6.03;2.80;;;;;;;19.93;100.00;95309.59;5055855;28;20215;-82
2023/08/06 03:56:03;;;;;;;4.93;2.77;;;;;;;19.63;100.00;95317.84;5056352;28;20013;-81
2023/08/06 03:58:30;;;;;;;5.17;2.53;;;;;;;20.03;100.00;95316.97;5067293;28;20028;-81
2023/08/06 04:01:01;;;;;;;6.73;3.33;;;;;;;20.07;100.00;95318.09;5052318;28;20368;-82
2023/08/06 04:03:30;;;;;;;4.47;2.63;;;;;;;19.68;100.00;95317.13;5072764;28;20535;-82
2023/08/06 04:05:56;;;;;;;4.73;2.53;;;;;;;20.12;100.00;95307.50;5054677;28;20032;-81
2023/08/06 04:08:21;;;;;;;4.53;2.67;;;;;;;20.10;100.00;95309.59;5051016;28;20028;-81
2023/08/06 04:10:53;;;;;;;6.90;2.70;;;;;;;20.05;100.00;95303.38;5051306;28;20020;-81
2023/08/06 04:13:20;;;;;;;5.53;2.60;;;;;;;20.10;100.00;95311.47;5069856;28;20044;-81
2023/08/06 04:15:45;;;;;;;9.20;3.07;;;;;;;19.97;100.00;95307.25;5055953;28;20032;-82
2023/08/06 04:18:12;;;;;;;5.47;2.97;;;;;;;20.07;100.00;95312.75;5064218;28;20025;-81
2023/08/06 04:20:46;;;;;;;5.20;2.47;;;;;;;20.17;100.00;95304.13;5050575;28;20020;-81
2023/08/06 04:23:11;;;;;;;;;;;;;;;20.33;100.00;95305.97;5055302;28;20028;-82
2023/08/06 04:25:37;;;;;;;4.57;3.13;;;;;;;20.35;100.00;95308.41;5067737;28;19919;-81
2023/08/06 04:28:03;;;;;;;6.17;2.33;;;;;;;20.52;100.00;95297.72;5051453;28;20024;-81
2023/08/06 04:30:28;;;;;;;5.60;2.60;;;;;;;20.21;100.00;95303.38;5071670;28;20057;-82
2023/08/06 04:32:57;;;;;;;3.67;2.23;;;;;;;20.36;100.00;95302.81;5054986;28;20567;-81
2023/08/06 04:35:31;;;;;;;5.30;2.97;;;;;;;20.32;100.00;95303.53;5055001;28;20025;-81
2023/08/06 04:37:57;;;;;;;5.75;2.35;;;;;;;20.30;100.00;95303.78;5053095;28;20060;-81
2023/08/06 04:40:22;;;;;;;4.40;2.57;;;;;;;20.16;100.00;95297.16;5065120;28;20024;-82
2023/08/06 04:42:48;;;;;;;5.17;2.57;;;;;;;19.97;100.00;95300.03;5050912;28;20039;-81
2023/08/06 04:45:14;;;;;;;6.93;3.00;;;;;;;19.91;100.00;95301.00;5069750;28;20039;-81
2023/08/06 04:47:39;;;;;;;5.87;2.60;;;;;;;19.94;100.00;95300.53;5050844;28;20028;-81
2023/08/06 04:50:13;;;;;;;5.10;2.57;;;;;;;19.85;100.00;95298.47;5068015;28;20020;-81
2023/08/06 04:52:39;;;;;;;6.60;2.83;;;;;;;19.79;100.00;95297.59;5071382;28;20063;-81
2023/08/06 04:55:06;;;;;;;6.10;2.47;;;;;;;19.99;100.00;95299.81;5072485;28;20432;-81
2023/08/06 04:57:31;;;;;;;5.17;2.70;;;;;;;20.30;100.00;95303.78;5057089;28;20024;-81
2023/08/06 04:59:57;;;;;;;3.93;2.37;;;;;;;20.01;100.00;95295.84;5054616;28;20093;-81
2023/08/06 05:02:22;;;;;;;4.50;2.40;;;;;;;20.09;100.00;95289.31;5065354;28;20028;-81
2023/08/06 05:04:54;;;;;;;5.23;1.70;;;;;;;19.74;100.00;95298.31;5057446;28;20035;-81
2023/08/06 05:07:19;;;;;;;4.07;2.10;;;;;;;19.91;100.00;95301.00;5070502;28;20031;-81
2023/08/06 05:09:45;;;;;;;5.03;2.03;;;;;;;20.10;100.00;95303.47;5057691;28;20390;-81
2023/08/06 05:12:10;;;;;;;4.10;1.75;;;;;;;20.31;100.00;95297.38;5070923;28;20713;-81
2023/08/06 05:14:36;;;;;;;4.90;1.57;;;;;;;20.34;100.00;95301.44;5060788;28;20036;-81
2023/08/06 05:17:04;;;;;;;2.90;1.70;;;;;;;20.31;100.00;95296.59;5054195;28;20087;-81
2023/08/06 05:19:32;;;;;;;4.67;1.97;;;;;;;20.48;100.00;95300.84;5070576;28;20107;-81
2023/08/06 05:22:01;;;;;;;4.47;2.00;;;;;;;20.35;100.00;95301.19;5050673;28;20036;-81
2023/08/06 05:24:28;;;;;;;4.47;1.77;;;;;;;20.55;100.00;95307.94;5064582;28;20029;-81
2023/08/06 05:26:53;;;;;;;5.07;1.63;;;;;;;20.04;100.00;95302.56;5063513;28;20025;-81
2023/08/06 05:29:19;;;;;;;3.13;1.80;;;;;;;20.15;100.00;95303.53;5071067;28;20759;-81
2023/08/06 05:31:45;;;;;;;5.32;1.95;;;;;;;20.49;100.00;95304.38;5071003;28;20036;-81
2023/08/06 05:34:10;;;;;;;6.27;1.57;;;;;;;20.46;100.00;95299.50;5070595;28;20376;-81
2023/08/06 05:36:36;;;;;;;4.50;1.77;;;;;;;19.99;100.00;95305.16;5069696;28;20052;-81
2023/08/06 05:39:01;;;;;;;3.60;1.90;;;;;;;20.00;100.00;95307.56;5069977;28;20032;-81
2023/08/06 05:41:27;;;;;;;5.45;2.05;;;;;;;20.07;100.00;95311.94;5054351;28;20036;-81
2023/08/06 05:44:00;;;;;;;3.53;1.97;;;;;;;20.28;100.00;95311.22;5046581;28;20444;-81
2023/08/06 05:46:38;;;;;;;5.95;1.85;;;;;;;19.89;100.00;95311.13;5056240;28;20028;-81
2023/08/06 05:49:04;;;;;;;5.20;1.60;;;;;;;19.89;100.00;95302.31;5051287;28;20630;-82
2023/08/06 05:51:30;;;;;;;5.33;1.87;;;;;;;19.78;100.00;95304.81;5066656;28;20111;-81
2023/08/06 05:53:56;;;;;;;4.57;1.70;;;;;;;19.76;100.00;95311.41;5061636;28;20043;-83
2023/08/06 05:56:27;;;;;;;6.47;2.03;;;;;;;19.65;100.00;95312.25;5053275;28;20035;-82
2023/08/06 05:58:53;;;;;;;2.63;1.42;;;;;;;19.11;100.00;95314.38;5070516;28;20028;-82
2023/08/06 06:01:20;;;;;;;5.43;1.73;;;;;;;19.44;100.00;95305.72;5064775;28;20410;-82
2023/08/06 06:03:46;;;;;;;4.63;1.70;;;;;;;19.49;100.00;95316.47;5057054;28;20024;-82
2023/08/06 06:06:13;;;;;;;3.80;1.50;;;;;;;19.20;100.00;95307.63;5075743;28;20028;-83
2023/08/06 06:08:39;;;;;;;5.43;1.60;;;;;;;19.36;100.00;95311.44;5074524;28;20107;-83
2023/08/06 06:11:04;;;;;;;7.30;1.27;;;;;;;19.32;100.00;95316.44;5074313;28;20033;-83
2023/08/06 06:13:30;;;;;;;5.80;1.50;;;;;;;19.66;100.00;95317.38;5066206;28;20032;-83
2023/08/06 06:15:56;;;;;;;3.63;1.73;;;;;;;19.64;100.00;95319.47;5045366;28;20028;-83
2023/08/06 06:18:22;;;;;;;3.70;1.83;;;;;;;19.43;100.00;95318.22;5074598;28;20036;-83
2023/08/06 06:20:47;;;;;;;3.43;1.47;;;;;;;19.07;100.00;95325.50;5053783;28;20024;-83
2023/08/06 06:23:14;;;;;;;4.20;1.30;;;;;;;18.84;100.00;95322.88;5069841;28;20039;-83
2023/08/06 06:25:43;;;;;;;2.80;1.30;;;;;;;19.08;100.00;95327.13;5074607;28;20031;-83
2023/08/06 06:28:14;;;;;;;4.63;1.63;;;;;;;19.03;100.00;95313.69;5055921;28;20017;-83
2023/08/06 06:30:42;;;;;;;4.47;1.40;;;;;;;19.35;100.00;95313.28;5080069;28;20029;-83
2023/08/06 06:33:13;;;;;;;3.30;1.03;;;;;;;19.21;100.00;95328.72;5056996;28;20024;-83
2023/08/06 06:35:39;;;;;;;3.63;1.40;;;;;;;19.49;100.00;95319.97;5060825;28;20132;-84
2023/08/06 06:38:11;;;;;;;5.77;1.23;;;;;;;20.36;100.00;95318.84;5049649;28;20793;-84
2023/08/06 06:40:37;;;;;;;3.30;1.43;;;;;;;19.98;100.00;95323.00;5056332;28;20036;-83
2023/08/06 06:43:02;;;;;;;4.93;1.20;;;;;;;19.95;100.00;95326.19;5054453;28;20382;-84
2023/08/06 06:45:28;;;;;;;2.90;1.33;;;;;;;20.17;100.00;95322.78;5067050;28;20027;-84
2023/08/06 06:48:05;;;;;;;2.78;1.38;;;;;;;20.19;100.00;95324.19;5066885;28;20036;-84
2023/08/06 06:50:30;;;;;;;3.20;1.20;;;;;;;20.30;100.00;95322.47;5067746;28;20033;-84
2023/08/06 06:52:56;;;;;;;2.78;1.10;;;;;;;20.31;100.00;95317.94;5049583;28;20024;-84
2023/08/06 06:55:21;;;;;;;3.73;1.33;;;;;;;20.22;100.00;95326.38;5056978;28;20034;-84
2023/08/06 06:57:47;;;;;;;5.93;1.58;;;;;;;20.40;100.00;95319.16;5056932;28;20043;-83
2023/08/06 07:00:15;;;;;;;3.90;1.27;;;;;;;19.97;100.00;95313.38;5055577;28;20178;-84
2023/08/06 07:02:41;;;;;;;6.55;1.20;;;;;;;19.96;100.00;95318.97;5057078;28;20032;-84
2023/08/06 07:05:07;;;;;;;3.92;1.23;;;;;;;20.00;100.00;95318.25;5053918;28;20017;-84
2023/08/06 07:07:39;;;;;;;4.10;1.27;;;;;;;19.91;100.00;95313.53;5057071;28;20580;-84
2023/08/06 07:10:05;;;;;;;2.17;1.10;;;;;;;20.07;100.00;95322.63;5056356;28;20119;-83
2023/08/06 07:12:31;;;;;;;3.63;1.30;;;;;;;19.69;100.00;95321.44;5049736;28;20082;-83
2023/08/06 07:14:56;;;;;;;5.97;1.63;;;;;;;19.96;100.00;95318.97;5054354;28;20020;-84
2023/08/06 07:17:24;;;;;;;5.50;2.53;;;;;;;19.98;100.00;95323.00;5072792;28;20028;-84
2023/08/06 07:19:49;;;;;;;9.32;4.20;;;;;;;19.88;100.00;95319.34;5066000;28;20061;-84
2023/08/06 07:22:15;;;;;;;5.50;1.15;;;;;;;20.40;100.00;95317.31;5056943;28;20052;-85
2023/08/06 07:24:40;;;;;;;4.25;1.67;;;;;;;19.69;100.00;95327.56;5073269;28;20078;-85
2023/08/06 07:27:07;;;;;;;5.05;1.60;;;;;;;19.62;100.00;95331.41;5055263;28;20056;-83
2023/08/06 07:29:33;;;;;;;2.55;0.90;;;;;;;19.91;100.00;95333.03;5067912;28;20036;-84
2023/08/06 07:31:58;;;;;;;4.78;1.10;;;;;;;19.75;100.00;95326.63;5056319;28;20035;-84
2023/08/06 07:34:25;;;;;;;2.03;0.73;;;;;;;19.71;100.00;95324.66;5052280;28;20028;-84
2023/08/06 07:36:50;;;;;;;2.50;0.70;;;;;;;19.88;100.00;95328.16;5074292;28;20020;-84
2023/08/06 07:39:16;;;;;;;2.95;0.95;;;;;;;19.98;100.00;95319.53;5067694;28;20036;-84
2023/08/06 07:42:04;;;;;;;0.82;0.50;;;;;;;20.09;100.00;95333.88;5072523;28;20391;-84
2023/08/06 07:44:30;;;;;;;3.50;0.80;;;;;;;19.68;100.00;95341.13;5038400;28;20029;-85
2023/08/06 07:46:55;;;;;;;2.22;0.88;;;;;;;19.71;100.00;95335.31;5068608;28;20493;-84
2023/08/06 07:49:21;;;;;;;2.07;0.77;;;;;;;19.33;100.00;95339.38;5073920;28;20028;-84
2023/08/06 07:51:47;;;;;;;2.00;0.63;;;;;;;19.37;100.00;95337.03;5055133;28;20024;-84
2023/08/06 07:54:13;;;;;;;4.68;0.80;;;;;;;19.76;100.00;95338.91;5055864;28;20402;-84
2023/08/06 07:56:59;;;;;;;3.40;0.80;;;;;;;19.99;100.00;95331.84;5056165;28;20024;-84
2023/08/06 07:59:35;;;;;;;2.57;0.73;;;;;;;19.44;100.00;95332.38;5055561;28;20024;-84
2023/08/06 08:02:09;;;;;;;2.10;0.73;;;;;;;19.77;100.00;95334.38;5063049;28;20025;-84
2023/08/06 08:04:34;;;;;;;1.70;0.83;;;;;;;19.69;100.00;95337.44;5065202;28;20092;-83
2023/08/06 08:07:00;;;;;;;1.95;0.90;;;;;;;20.79;100.00;95330.75;5072670;28;20036;-83
2023/08/06 08:09:26;;;;;;;3.05;0.70;;;;;;;20.02;100.00;95326.84;5048582;28;20029;-83
2023/08/06 08:11:52;;;;;;;3.63;0.85;;;;;;;20.52;100.00;95335.13;5055464;28;20028;-83
2023/08/06 08:14:20;;;;;;;1.25;0.65;;;;;;;19.86;100.00;95332.94;5068207;28;20111;-84
2023/08/06 08:16:45;;;;;;;2.67;0.60;;;;;;;20.05;100.00;95330.06;5072190;28;20387;-84
2023/08/06 08:19:13;;;;;;;0.63;0.40;;;;;;;20.23;100.00;95327.16;5054329;28;20032;-84
2023/08/06 08:21:58;;;;;;;1.75;0.68;;;;;;;19.64;100.00;95334.66;5059946;28;20036;-83
2023/08/06 08:24:27;;;;;;;0.63;0.32;;;;;;;19.82;100.00;95337.16;5066559;28;20056;-84
2023/08/06 08:26:53;;;;;;;1.48;0.47;;;;;;;19.19;100.00;95343.34;5069010;28;20109;-84
2023/08/06 08:29:22;;;;;;;2.25;0.77;;;;;;;19.71;100.00;95338.00;5073228;28;20034;-84
2023/08/06 08:31:51;;;;;;;1.38;0.50;;;;;;;19.08;100.00;95337.00;5067001;28;20100;-83
2023/08/06 08:34:19;;;;;;;0.90;0.50;;;;;;;19.20;100.00;95343.09;5060777;28;20032;-84
2023/08/06 08:36:49;;;;;;;1.95;0.30;;;;;;;18.97;100.00;95341.28;5058481;28;20039;-83
2023/08/06 08:39:15;;;;;;;0.70;0.30;;;;;;;18.76;100.00;95342.69;5072185;28;20041;-83
2023/08/06 08:41:42;;;;;;;0.47;0.30;;;;;;;19.78;100.00;95341.31;5072398;28;20497;-88
2023/08/06 08:44:10;;;;;;;2.57;1.10;;;;;;;19.10;100.00;95342.06;5052592;28;20399;-83
2023/08/06 08:46:55;;;;;;;0.93;0.50;;;;;;;19.08;100.00;95345.00;5072093;28;20032;-83
2023/08/06 08:49:23;;;;;;;0.40;0.30;;;;;;;19.59;100.00;95347.88;5073096;28;20445;-83
2023/08/06 08:51:53;;;;;;;1.80;0.20;;;;;;;19.15;100.00;95331.50;5055450;28;20028;-82
2023/08/06 08:54:22;;;;;;;0.93;0.40;;;;;;;19.64;100.00;95337.31;5064545;28;20032;-85
2023/08/06 08:56:48;;;;;;;1.67;1.10;;;;;;;19.33;100.00;95347.34;5055505;28;20032;-82
2023/08/06 08:59:19;;;;;;;2.03;0.90;;;;;;;19.17;100.00;95346.22;5069546;28;20032;-82
2023/08/06 09:01:50;;;;;;;0.45;0.40;;;;;;;19.60;100.00;95346.81;5051627;28;20127;-80
2023/08/06 09:04:20;;;;;;;0.93;0.40;;;;;;;19.77;100.00;95345.03;5060629;28;20663;-79
2023/08/06 09:06:51;;;;;;;1.13;0.50;;;;;;;19.80;100.00;95344.56;5071051;28;20111;-79
2023/08/06 09:09:26;;;;;;;1.73;0.50;;;;;;;19.62;100.00;95345.53;5053661;28;20119;-80
2023/08/06 09:11:55;;;;;;;0.75;0.40;;;;;;;19.35;100.00;95355.94;5071832;28;21332;-81
2023/08/06 09:14:21;;;;;;;0.55;0.47;;;;;;;19.37;100.00;95345.03;5043525;28;20040;-83
2023/08/06 09:16:48;;;;;;;0.30;0.30;;;;;;;19.69;100.00;95350.78;5077532;28;20059;-87
2023/08/06 09:19:17;;;;;;;2.25;0.40;;;;;;;19.89;100.00;95351.16;5050271;28;20037;-88
2023/08/06 09:21:48;;;;;;;1.65;0.30;;;;;;;19.88;100.00;95354.84;5058150;28;20119;-88
2023/08/06 09:24:14;;;;;;;2.13;0.37;;;;;;;19.60;100.00;95349.50;5057968;28;20426;-83
2023/08/06 09:26:48;;;;;;;0.45;0.40;;;;;;;19.84;100.00;95348.38;5072289;28;20016;-82
2023/08/06 09:29:14;;;;;;;0.55;0.30;;;;;;;19.65;100.00;95341.59;5057500;28;20033;-86
2023/08/06 09:31:48;;;;;;;1.17;0.60;;;;;;;19.95;100.00;95349.34;5046444;28;20045;-85
2023/08/06 09:34:19;;;;;;;1.67;0.40;;;;;;;20.48;100.00;95346.25;5060467;28;20027;-88
2023/08/06 09:36:51;;;;;;;0.43;0.30;;;;;;;20.08;100.00;95341.06;5061300;28;20017;-84
2023/08/06 09:39:20;;;;;;;1.07;0.30;;;;;;;19.76;100.00;95352.25;5064485;28;20447;-83
2023/08/06 09:41:49;;;;;;;0.35;0.22;;;;;;;19.76;100.00;95351.44;5064170;28;20078;-83
2023/08/06 09:44:21;;;;;;;2.53;0.40;;;;;;;20.38;100.00;95342.63;5062899;28;20380;-83
2023/08/06 09:46:58;;;;;;;0.85;0.40;;;;;;;20.02;100.00;95344.72;5073619;28;20471;-83
2023/08/06 09:49:41;;;;;;;1.02;0.50;;;;;;;20.12;100.00;95346.72;5067968;28;20517;-84
2023/08/06 09:52:11;;;;;;;1.52;0.35;;;;;;;19.22;100.00;95350.88;5049395;28;20166;-82
2023/08/06 09:54:38;;;;;;;0.73;0.28;;;;;;;19.49;100.00;95343.97;5070260;28;20021;-84
2023/08/06 09:57:05;;;;;;;0.85;0.50;;;;;;;20.07;100.00;95330.63;5068832;28;20050;-83
2023/08/06 09:59:32;;;;;;;0.30;0.20;;;;;;;20.94;100.00;95338.16;5058152;28;20020;-85
2023/08/06 10:01:59;;;;;;;1.30;0.45;;;;;;;20.40;100.00;95327.97;5073001;28;20127;-82
2023/08/06 10:04:25;;;;;;;2.80;0.55;;;;;;;20.93;100.00;95328.53;5069024;28;20078;-83
2023/08/06 10:06:50;;;;;;;0.82;0.10;;;;;;;20.78;100.00;95323.75;5040743;28;20040;-82
2023/08/06 10:09:16;;;;;;;0.88;0.25;;;;;;;20.92;100.00;95330.41;5073615;28;20025;-82
2023/08/06 10:11:44;;;;;;;2.17;0.30;;;;;;;20.82;100.00;95330.22;5058137;28;20030;-82
2023/08/06 10:14:09;;;;;;;1.95;0.60;;;;;;;21.02;100.00;95351.09;5064979;28;20052;-82
2023/08/06 10:16:39;;;;;;;0.65;0.20;;;;;;;19.80;100.00;95341.09;5050661;28;20040;-82
2023/08/06 10:19:08;;;;;;;1.50;0.32;;;;;;;19.81;100.00;95332.84;5068308;28;20032;-82
2023/08/06 10:21:34;;;;;;;0.35;0.20;;;;;;;20.05;100.00;95340.72;5053556;28;20457;-82
2023/08/06 10:24:01;;;;;;;0.60;0.20;;;;;;;20.75;100.00;95329.59;5055279;28;20053;-82
2023/08/06 10:26:43;;;;;;;2.45;0.25;;;;;;;19.50;100.00;95342.91;5069048;28;20025;-82
2023/08/06 10:29:45;;;;;;;1.60;0.20;;;;;;;20.22;100.00;95342.38;5054574;28;20016;-82
2023/08/06 10:32:11;;;;;;;0.10;0.10;;;;;;;20.14;100.00;95340.09;5052535;28;20029;-82
2023/08/06 10:35:00;;;;;;;1.45;0.10;;;;;;;20.71;100.00;95341.84;5067892;28;20025;-82
2023/08/06 10:37:57;;;;;;;1.38;0.10;;;;;;;20.26;100.00;95340.03;5069870;28;20020;-81
2023/08/06 10:40:24;;;;;;;1.08;0.32;;;;;;;20.38;100.00;95340.75;5050060;28;20040;-82
2023/08/06 10:42:49;;;;;;;0.43;0.10;;;;;;;19.91;100.00;95346.34;5068591;28;20033;-82
2023/08/06 10:45:17;;;;;;;1.45;0.20;;;;;;;20.07;100.00;95349.31;5072160;28;20086;-81
2023/08/06 10:47:44;;;;;;;0.50;0.20;;;;;;;19.99;100.00;95348.66;5070592;28;20489;-81
2023/08/06 10:50:17;;;;;;;0.30;0.30;;;;;;;19.72;100.00;95345.78;5054941;28;20048;-82
2023/08/06 10:52:47;;;;;;;0.45;0.20;;;;;;;19.76;100.00;95332.75;5056490;28;20427;-82
2023/08/06 10:55:25;;;;;;;0.50;0.20;;;;;;;20.69;100.00;95330.56;5073401;28;20081;-82
2023/08/06 10:57:51;;;;;;;1.02;0.30;;;;;;;20.47;100.00;95328.63;5074562;28;20119;-82
2023/08/06 11:00:16;;;;;;;0.25;0.20;;;;;;;20.41;100.00;95328.78;5073549;28;20115;-81
2023/08/06 11:02:43;;;;;;;1.20;0.10;;;;;;;20.57;100.00;95335.22;5057036;28;20428;-82
2023/08/06 11:05:10;;;;;;;0.30;0.15;;;;;;;20.59;100.00;95339.28;5073401;28;20052;-82
2023/08/06 11:07:36;;;;;;;0.38;0.20;;;;;;;20.71;100.00;95333.81;5071921;28;20024;-81
2023/08/06 11:10:08;;;;;;;0.32;0.10;;;;;;;20.46;100.00;95326.22;5068520;28;20143;-81
2023/08/06 11:12:34;;;;;;;0.93;0.30;;;;;;;21.08;100.00;95327.91;5072620;28;20039;-81
2023/08/06 11:15:03;;;;;;;0.43;0.30;;;;;;;20.37;100.00;95320.47;5047247;28;20108;-81
2023/08/06 11:17:31;;;;;;;2.13;0.95;;;;;;;20.20;100.00;95307.09;5050755;28;20437;-82
2023/08/06 11:20:00;;;;;;;1.00;0.20;;;;;;;20.77;100.00;95322.16;5073391;28;20029;-82
2023/08/06 11:22:26;;;;;;;0.95;0.75;;;;;;;21.27;100.00;95323.91;5052572;28;20131;-81
2023/08/06 11:24:53;;;;;;;6.65;3.40;;;;;;;21.58;100.00;95326.97;5056580;28;20023;-83
2023/08/06 11:27:18;;;;;;;2.85;1.15;;;;;;;20.65;100.00;95332.13;5066510;28;20616;-82
2023/08/06 11:29:44;;;;;;;10.18;5.40;;;;;;;20.09;100.00;95325.88;5053043;28;20033;-81